Station info - map view · info · telemetry · weather · raw · status · beacons · messages · bulletins · browse · moving · my account
Callsign, ship name or locator: Clear       
It is possible to search using wildcards (*?) after a prefix. Example: OH*
APRS station K5EK-9 - show graphs
Map loading...
Comment: 146.52 MHz
Mic-E message: Off duty
Location: 33°58.50' N 78°07.83' W - locator FM03WX44IA - show map - static map
4.4 miles Northeast bearing 23° from Oak Island, Brunswick County, North Carolina, United States [?]
4.5 miles North bearing 351° from Long Beach, Brunswick County, North Carolina, United States
20.3 miles Southwest bearing 212° from Wilmington, New Hanover County, North Carolina, United States
67.0 miles Southwest bearing 217° from Jacksonville, Onslow County, North Carolina, United States
Last position: 2019-12-03 17:57:35 EST (10d 3h8m ago)
2019-12-03 17:57:35 EST local time at Oak Island, United States [?]
Altitude: -30 ft
Course: 179°
Speed: 32 MPH
Device: Yaesu: FTM-400DR (rig)
Last path: K5EK-9>SSUX5P via WIDE1-1,WIDE2-1,qAR,N4ILM-4 (good)
Positions stored: 57328
Other SSIDs: K5EK-4 K5EK-7
Stations near current position of K5EK-9 - show more
callsign distance last heard - EST      callsign distance last heard - EST
N4NVG-93.6 miles 118°2019-12-13 14:24:57 KD4VRD4.1 miles 314°2019-12-13 21:02:28
KF4DBW4.8 miles 146°2019-11-26 01:57:56 KI4SPO B4.9 miles 223°2019-12-13 20:57:39
KI4SPO-B4.9 miles 223°2019-12-13 20:57:49 FW09645.3 miles 102°2019-12-13 21:01:48
003660626 US7.0 miles 105°2019-12-01 17:20:33 W4ILS B7.2 miles 118°2019-12-13 20:57:16
W4ILS-B7.2 miles 118°2019-12-13 20:57:26 W3MA-29.1 miles 243°2019-12-13 21:03:20
N4EJM-910.3 miles 21°2019-12-13 17:03:08 N4EJM-510.3 miles 21°2019-12-13 21:03:10
FW382710.6 miles 247°2019-12-13 21:05:17 N4ILM-411.3 miles 343°2019-12-13 21:03:22
KK4XZ14.3 miles 258°2019-12-13 21:02:53 FW076114.9 miles 251°2019-12-13 21:00:33
KK4BAD17.4 miles 55°2019-12-12 16:28:12 K4IRV-717.8 miles 42°2019-12-11 20:20:58
KB4QCE B18.0 miles 24°2019-12-13 14:14:02 KB4QCE-B18.0 miles 24°2019-12-13 13:54:12
Stations which heard K5EK-9 directly on radio –
callsign pkts first heard - EST last heard longest (tx => rx) longest at - EST
W3UD-3 11 2019-12-03 08:33:21 2019-12-03 09:15:01 FM29HQ > FM29CQ 19.3 miles 269° 2019-12-03 08:33:21
KD4PBS-3 18 2019-12-03 15:37:02 2019-12-03 16:21:55 FM05WD > FM05RQ 43.2 miles 327° 2019-12-03 16:21:55
WB2SNN-15 3 2019-12-03 07:11:34 2019-12-03 07:22:27 FN20SI > FN20TK 7.5 miles 41° 2019-12-03 07:22:27
N3KTX-7 6 2019-12-03 09:34:58 2019-12-03 10:02:15 FM19VL > FM18XW 39.3 miles 166° 2019-12-03 09:34:58
N3KTX-1 20 2019-12-03 09:45:47 2019-12-03 10:08:49 FM19SJ > FM19PG 16.8 miles 247° 2019-12-03 09:45:47
N2MH-15 26 2019-12-01 13:36:09 2019-12-03 06:35:29 FN30DT > FN20UT 29.4 miles 270° 2019-12-01 13:44:00
N3XJT-1 26 2019-12-03 08:52:10 2019-12-03 09:38:55 FM19TK > FM29AN 21.7 miles 65° 2019-12-03 09:38:55
KG4NVB 2 2019-12-03 14:47:07 2019-12-03 14:47:38 FM16EL > FM16EL 3.2 miles 252° 2019-12-03 14:47:07
W4RAT-2 7 2019-12-03 12:56:15 2019-12-03 13:22:09 FM17IN > FM17FU 22.3 miles 330° 2019-12-03 13:22:09
W4RAT-5 24 2019-12-03 13:29:31 2019-12-03 14:07:41 FM16HV > FM17IE 20.7 miles 15° 2019-12-03 14:07:41
NC4LA-4 3 2019-12-03 15:54:52 2019-12-03 16:01:50 FM15AL > FM15EF 26.8 miles 125° 2019-12-03 15:54:52
K3TU 3 2019-12-03 08:01:02 2019-12-03 08:02:44 FM29MV > FM29KX 10.5 miles 300° 2019-12-03 08:01:02
W2AEE 17 2019-12-01 13:35:10 2019-12-03 06:22:19 FN30ET > FN30AT 15.5 miles 273° 2019-12-02 13:08:08
NV4FM-5 17 2019-12-03 10:42:23 2019-12-03 11:10:53 FM19LA > FM18JV 12.5 miles 233° 2019-12-03 10:42:23
N3UJJ-6 1 2019-12-03 10:06:21 2019-12-03 10:06:21 FM19PF > FM18SX 20.4 miles 150° 2019-12-03 10:06:21
KB4ZIN-5 4 2019-12-03 13:33:11 2019-12-03 13:48:23 FM17HK > FM17PG 34.8 miles 108° 2019-12-03 13:33:11
K2GE-13 5 2019-12-03 07:08:27 2019-12-03 07:16:10 FN20SK > FN20UK 6.1 miles 83° 2019-12-03 07:16:10
K3GJ-13 3 2019-12-03 10:23:25 2019-12-03 10:35:42 FM19ND > FM18NU 21.4 miles 182° 2019-12-03 10:23:25
N3FCX 6 2019-12-03 08:07:59 2019-12-03 08:44:24 FM29FQ > FM29IV 18.5 miles 36° 2019-12-03 08:44:24
KC2QVT-15 12 2019-12-03 07:24:46 2019-12-03 07:52:25 FN20SH > FM29QX 25.3 miles 199° 2019-12-03 07:24:46
W4IY 1 2019-12-03 11:21:21 2019-12-03 11:21:21 FM18JQ > FM18IP 2.3 miles 228° 2019-12-03 11:21:21
WB2ZII-15 4 2019-12-02 13:06:05 2019-12-03 06:25:05 FN20VP > FN31CG 48.6 miles 25° 2019-12-03 06:12:39
KV3B-1 5 2019-12-03 10:36:21 2019-12-03 11:04:20 FM18JU > FM19JE 22.1 miles 356° 2019-12-03 11:04:20
N4ILM-4 47 2019-12-03 16:57:53 2019-12-03 17:57:35 FM14AQ > FM04VD 39.7 miles 200° 2019-12-03 16:57:53
AC2FO 1 2019-12-03 08:03:20 2019-12-03 08:03:20 FM29LV > FM29MT 6.2 miles 143° 2019-12-03 08:03:20
N4TUF-2 10 2019-12-03 15:07:04 2019-12-03 15:23:39 FM16CE > FM15CX 14.9 miles 193° 2019-12-03 15:07:04
N3TJJ-11 3 2019-12-03 09:23:10 2019-12-03 09:25:12 FM19WN > FM19UV 22.5 miles 341° 2019-12-03 09:23:44
W4VA-10 7 2019-12-03 11:41:30 2019-12-03 12:35:18 FM18FH > FM18BR 34.9 miles 330° 2019-12-03 12:35:18
AE4ML-1 20 2019-12-03 11:46:37 2019-12-03 12:40:28 FM18GE > FM18GH 6.9 miles 19° 2019-12-03 12:40:28
KD2DVW-1 1 2019-12-03 08:25:59 2019-12-03 08:25:59 FM29HQ > FM29JL 18.9 miles 142° 2019-12-03 08:25:59
CLAYTN 6 2019-12-03 08:06:52 2019-12-03 08:45:49 FM29FQ > FM29KQ 23.0 miles 93° 2019-12-03 08:42:19
KD2EHE 4 2019-12-03 07:50:44 2019-12-03 07:59:20 FN20OA > FM29NW 5.1 miles 210° 2019-12-03 07:50:44
TOMRVR 2 2019-12-03 06:05:33 2019-12-03 07:35:38 FN20XO > FM29VX 44.3 miles 190° 2019-12-03 06:05:33
KB2EAR-1 7 2019-12-03 06:06:04 2019-12-03 07:35:13 FN20QE > FN20RO 29.2 miles 4° 2019-12-03 07:35:13
K3ARS-2 3 2019-12-03 09:46:55 2019-12-03 09:56:58 FM19SI > FM19VD 20.3 miles 139° 2019-12-03 09:48:04
MATWAN 41 2019-12-01 13:39:11 2019-12-03 07:35:30 FN30DT > FN20VJ 40.1 miles 227° 2019-12-01 13:44:06
N4UED-4 7 2019-12-03 14:39:37 2019-12-03 14:58:11 FM16FO > FM16EK 11.9 miles 199° 2019-12-03 14:39:37
K3ARS-3 18 2019-12-03 09:21:22 2019-12-03 10:00:40 FM19XO > FM19VF 26.1 miles 192° 2019-12-03 09:21:22
KK4NDE-3 5 2019-12-03 11:49:30 2019-12-03 12:41:00 FM18FH > FM18GF 4.9 miles 166° 2019-12-03 11:49:30
K3PDR-3 6 2019-12-03 07:50:09 2019-12-03 08:42:15 FM29FQ > FN20JB 32.6 miles 34° 2019-12-03 08:42:15
MDAAOC-1 3 2019-12-03 09:49:53 2019-12-03 10:11:43 FM19RI > FM19QD 13.8 miles 206° 2019-12-03 09:49:53
K2GE-14 11 2019-12-03 06:04:24 2019-12-03 07:25:54 FN20WO > FN20TK 19.8 miles 229° 2019-12-03 06:04:24
W4KEL-12 8 2019-12-03 10:59:06 2019-12-03 13:08:38 FM18JW > FM08QH 87.2 miles 240° 2019-12-03 10:59:06
KM4VHX-10 4 2019-12-03 11:54:07 2019-12-03 12:39:19 FM18FH > FM18GF 5.5 miles 154° 2019-12-03 11:54:07
N3TOS 2 2019-12-03 10:12:52 2019-12-03 10:17:41 FM19OE > FM19ME 10.0 miles 277° 2019-12-03 10:12:52
N2WNS 7 2019-12-03 06:06:51 2019-12-03 07:04:46 FN20WO > FN20TV 25.6 miles 324° 2019-12-03 06:06:51
KC3KLJ-10 1 2019-12-03 10:29:01 2019-12-03 10:29:01 FM19NC > FM19OC 3.8 miles 92° 2019-12-03 10:29:01
KM4CWX-2 8 2019-12-03 11:32:26 2019-12-03 11:46:03 FM18HN > FM18GK 8.8 miles 209° 2019-12-03 11:32:26
K4BBB-1 5 2019-12-03 11:01:04 2019-12-03 11:03:39 FM18JV > FM18JV 1.4 miles 37° 2019-12-03 11:03:39
AL0Y-10 21 2019-12-02 13:02:49 2019-12-03 07:07:24 FN30ET > FN20VV 27.7 miles 283° 2019-12-02 13:08:06
N4DBM-1 9 2019-12-03 16:27:03 2019-12-03 17:32:21 FM05VC > FM04QN 44.5 miles 214° 2019-12-03 16:27:03
K2VIZ-2 8 2019-12-03 13:09:42 2019-12-03 13:36:26 FM17HJ > FM17FO 20.0 miles 325° 2019-12-03 13:36:26
NY3PD-10 1 2019-12-03 06:02:00 2019-12-03 06:02:00 FN20XO > FN20XO 2.5 miles 55° 2019-12-03 06:02:00
AB3RI-1 1 2019-12-03 08:51:37 2019-12-03 08:51:37 FM29DQ > FM29EP 2.2 miles 121° 2019-12-03 08:51:37
K2TCW-2 8 2019-12-03 05:45:45 2019-12-03 06:25:43 FN20VQ > FN20XP 8.4 miles 113° 2019-12-03 06:25:43
AC2RF-10 1 2019-12-03 08:21:25 2019-12-03 08:21:25 FM29IR > FM29GS 9.4 miles 286° 2019-12-03 08:21:25
K2IE-15 1 2019-12-03 05:53:58 2019-12-03 05:53:58 FN30AO > FN20VJ 17.5 miles 221° 2019-12-03 05:53:58
KD2QKS-10 10 2019-12-03 07:30:32 2019-12-03 07:43:20 FN20PC > FN20QE 9.4 miles 39° 2019-12-03 07:43:20
N3JHS-1 2 2019-12-03 07:42:46 2019-12-03 07:45:02 FN20PB > FN20OD 6.5 miles 319° 2019-12-03 07:45:02

Only position packets which were originated by the station are shown here. The range statistics show some extra long hops, because some digipeaters do not correctly add themselves to the digipeater path. Please check the raw packets.
About this site
This page shows real-time information collected from the Automatic Position Reporting System Internet network (APRS-IS). APRS is used by amateur (ham) radio operators to transmit real-time position information, weather data, telemetry and messages over the radio. A vehicle equipped with a GPS receiver, a VHF transmitter or HF transceiver and a small computer device called a tracker transmits it's location, speed and course in a small data packet, which is then received by a nearby iGate receiving site which forwards the packet on the Internet. Systems connected to the Internet can send information on the APRS-IS without a radio transmitter, or collect and display information transmitted anywhere in the world.
User guide · FAQ · Blog · Discussion group · Linking to aprs.fi · AIS sites · Service status · Database statistics · Advertising on aprs.fi · Technical details · API · Change log · Planned changes · Credits and thanks · Terms Of Service · iPhone/iPad APRS